sensor_id;sensor_type;location;lat;lon;timestamp;pressure;altitude;pressure_sealevel;temperature;humidity
78509;BME280;67802;50.846;7.958;2023-07-08T00:00:09;98104.44;;;21.31;42.77
78509;BME280;67802;50.846;7.958;2023-07-08T00:02:35;98098.31;;;21.31;42.87
78509;BME280;67802;50.846;7.958;2023-07-08T00:05:00;98089.69;;;21.29;42.77
78509;BME280;67802;50.846;7.958;2023-07-08T00:07:25;98087.03;;;21.29;43.03
78509;BME280;67802;50.846;7.958;2023-07-08T00:09:51;98085.34;;;21.28;42.78
78509;BME280;67802;50.846;7.958;2023-07-08T00:12:16;98087.19;;;21.27;43.16
78509;BME280;67802;50.846;7.958;2023-07-08T00:14:41;98092.56;;;21.26;42.86
78509;BME280;67802;50.846;7.958;2023-07-08T00:17:11;98088.25;;;21.25;42.99
78509;BME280;67802;50.846;7.958;2023-07-08T00:19:37;98088.25;;;21.25;42.81
78509;BME280;67802;50.846;7.958;2023-07-08T00:22:08;98084.91;;;21.23;43.09
78509;BME280;67802;50.846;7.958;2023-07-08T00:24:35;98075.28;;;21.22;42.81
78509;BME280;67802;50.846;7.958;2023-07-08T00:27:01;98074.63;;;21.19;43.00
78509;BME280;67802;50.846;7.958;2023-07-08T00:29:26;98071.25;;;21.17;42.87
78509;BME280;67802;50.846;7.958;2023-07-08T00:31:51;98077.50;;;21.16;43.07
78509;BME280;67802;50.846;7.958;2023-07-08T00:34:16;98083.03;;;21.13;42.91
78509;BME280;67802;50.846;7.958;2023-07-08T00:36:42;98076.09;;;21.12;42.85
78509;BME280;67802;50.846;7.958;2023-07-08T00:39:13;98079.69;;;21.11;42.83
78509;BME280;67802;50.846;7.958;2023-07-08T00:41:40;98068.41;;;21.09;42.75
78509;BME280;67802;50.846;7.958;2023-07-08T00:44:10;98078.97;;;21.09;42.69
78509;BME280;67802;50.846;7.958;2023-07-08T00:49:25;98071.06;;;21.09;42.66
78509;BME280;67802;50.846;7.958;2023-07-08T00:51:51;98072.03;;;21.08;42.69
78509;BME280;67802;50.846;7.958;2023-07-08T00:54:18;98073.81;;;21.08;42.79
78509;BME280;67802;50.846;7.958;2023-07-08T00:56:59;98073.81;;;21.08;42.88
78509;BME280;67802;50.846;7.958;2023-07-08T00:59:52;98074.78;;;21.07;42.69
78509;BME280;67802;50.846;7.958;2023-07-08T01:02:21;98078.28;;;21.07;42.85
78509;BME280;67802;50.846;7.958;2023-07-08T01:05:16;98076.59;;;21.06;42.88
78509;BME280;67802;50.846;7.958;2023-07-08T01:07:44;98072.28;;;21.05;42.81
78509;BME280;67802;50.846;7.958;2023-07-08T01:10:27;98067.00;;;21.05;42.93
78509;BME280;67802;50.846;7.958;2023-07-08T01:12:57;98064.34;;;21.05;43.01
78509;BME280;67802;50.846;7.958;2023-07-08T01:15:31;98058.34;;;21.03;43.02
78509;BME280;67802;50.846;7.958;2023-07-08T01:17:58;98054.75;;;21.04;43.17
78509;BME280;67802;50.846;7.958;2023-07-08T01:20:23;98055.00;;;21.01;43.27
78509;BME280;67802;50.846;7.958;2023-07-08T01:22:48;98061.25;;;21.00;43.15
78509;BME280;67802;50.846;7.958;2023-07-08T01:25:14;98056.94;;;20.99;43.11
78509;BME280;67802;50.846;7.958;2023-07-08T01:27:44;98062.22;;;20.99;43.00
78509;BME280;67802;50.846;7.958;2023-07-08T01:30:13;98053.56;;;20.97;43.01
78509;BME280;67802;50.846;7.958;2023-07-08T01:32:45;98058.84;;;20.97;42.87
78509;BME280;67802;50.846;7.958;2023-07-08T01:35:11;98056.31;;;20.95;43.02
78509;BME280;67802;50.846;7.958;2023-07-08T01:37:59;98051.91;;;20.96;43.13
78509;BME280;67802;50.846;7.958;2023-07-08T01:40:29;98055.50;;;20.95;43.03
78509;BME280;67802;50.846;7.958;2023-07-08T01:42:55;98054.66;;;20.94;43.18
78509;BME280;67802;50.846;7.958;2023-07-08T01:45:24;98057.44;;;20.93;43.17
78509;BME280;67802;50.846;7.958;2023-07-08T01:48:12;98050.47;;;20.92;43.28
78509;BME280;67802;50.846;7.958;2023-07-08T01:51:03;98050.47;;;20.92;43.29
78509;BME280;67802;50.846;7.958;2023-07-08T01:53:38;98050.47;;;20.92;43.24
78509;BME280;67802;50.846;7.958;2023-07-08T01:56:05;98054.94;;;20.91;43.20
78509;BME280;67802;50.846;7.958;2023-07-08T01:58:30;98048.81;;;20.90;43.35
78509;BME280;67802;50.846;7.958;2023-07-08T02:00:56;98045.34;;;20.90;43.22
78509;BME280;67802;50.846;7.958;2023-07-08T02:03:22;98042.81;;;20.88;43.23
78509;BME280;67802;50.846;7.958;2023-07-08T02:05:47;98037.53;;;20.88;43.26
78509;BME280;67802;50.846;7.958;2023-07-08T02:08:13;98037.66;;;20.87;43.19
78509;BME280;67802;50.846;7.958;2023-07-08T02:10:39;98028.78;;;20.88;43.39
78509;BME280;67802;50.846;7.958;2023-07-08T02:13:05;98034.16;;;20.86;43.40
78509;BME280;67802;50.846;7.958;2023-07-08T02:15:30;98027.22;;;20.85;43.34
78509;BME280;67802;50.846;7.958;2023-07-08T02:17:56;98029.84;;;20.85;43.61
78509;BME280;67802;50.846;7.958;2023-07-08T02:20:22;98024.72;;;20.84;43.45
78509;BME280;67802;50.846;7.958;2023-07-08T02:22:47;98028.19;;;20.84;43.42
78509;BME280;67802;50.846;7.958;2023-07-08T02:25:12;98028.31;;;20.83;43.56
78509;BME280;67802;50.846;7.958;2023-07-08T02:27:38;98024.81;;;20.82;43.38
78509;BME280;67802;50.846;7.958;2023-07-08T02:30:04;98025.78;;;20.81;43.75
78509;BME280;67802;50.846;7.958;2023-07-08T02:32:29;98023.16;;;20.81;43.54
78509;BME280;67802;50.846;7.958;2023-07-08T02:34:55;98015.38;;;20.80;43.33
78509;BME280;67802;50.846;7.958;2023-07-08T02:37:20;98015.38;;;20.80;43.36
78509;BME280;67802;50.846;7.958;2023-07-08T02:39:45;98007.56;;;20.78;43.48
78509;BME280;67802;50.846;7.958;2023-07-08T02:42:11;98005.88;;;20.77;43.57
78509;BME280;67802;50.846;7.958;2023-07-08T02:44:36;97998.91;;;20.76;43.51
78509;BME280;67802;50.846;7.958;2023-07-08T02:47:01;97997.22;;;20.75;43.46
78509;BME280;67802;50.846;7.958;2023-07-08T02:49:27;98002.50;;;20.75;43.46
78509;BME280;67802;50.846;7.958;2023-07-08T02:51:53;97999.88;;;20.75;43.51
78509;BME280;67802;50.846;7.958;2023-07-08T02:54:18;98013.06;;;20.75;43.52
78509;BME280;67802;50.846;7.958;2023-07-08T02:56:43;98012.34;;;20.73;43.55
78509;BME280;67802;50.846;7.958;2023-07-08T02:59:08;98012.34;;;20.73;43.59
78509;BME280;67802;50.846;7.958;2023-07-08T03:01:34;98003.59;;;20.72;43.54
78509;BME280;67802;50.846;7.958;2023-07-08T03:04:10;98005.41;;;20.72;43.53
78509;BME280;67802;50.846;7.958;2023-07-08T03:06:42;98009.00;;;20.71;43.65
78509;BME280;67802;50.846;7.958;2023-07-08T03:09:09;98009.97;;;20.70;43.62
78509;BME280;67802;50.846;7.958;2023-07-08T03:11:35;98014.41;;;20.69;43.58
78509;BME280;67802;50.846;7.958;2023-07-08T03:14:01;98013.56;;;20.69;43.64
78509;BME280;67802;50.846;7.958;2023-07-08T03:16:26;98019.94;;;20.66;43.50
78509;BME280;67802;50.846;7.958;2023-07-08T03:18:51;98015.88;;;20.62;43.13
78509;BME280;67802;50.846;7.958;2023-07-08T03:21:18;98015.16;;;20.60;43.34
78509;BME280;67802;50.846;7.958;2023-07-08T03:23:43;98019.63;;;20.59;43.19
78509;BME280;67802;50.846;7.958;2023-07-08T03:26:24;98026.69;;;20.59;43.34
78509;BME280;67802;50.846;7.958;2023-07-08T03:28:50;98024.19;;;20.57;43.11
78509;BME280;67802;50.846;7.958;2023-07-08T03:31:15;98023.22;;;20.58;43.24
78509;BME280;67802;50.846;7.958;2023-07-08T03:33:41;98029.47;;;20.57;43.26
78509;BME280;67802;50.846;7.958;2023-07-08T03:36:12;98028.59;;;20.57;43.31
78509;BME280;67802;50.846;7.958;2023-07-08T03:38:38;98035.69;;;20.56;43.26
78509;BME280;67802;50.846;7.958;2023-07-08T03:41:04;98038.44;;;20.55;43.18
78509;BME280;67802;50.846;7.958;2023-07-08T03:43:30;98048.19;;;20.54;43.36
78509;BME280;67802;50.846;7.958;2023-07-08T03:45:55;98048.19;;;20.54;43.19
78509;BME280;67802;50.846;7.958;2023-07-08T03:48:21;98051.78;;;20.53;43.20
78509;BME280;67802;50.846;7.958;2023-07-08T03:50:46;98047.31;;;20.54;43.20
78509;BME280;67802;50.846;7.958;2023-07-08T03:53:12;98057.88;;;20.54;43.18
78509;BME280;67802;50.846;7.958;2023-07-08T03:55:37;98055.25;;;20.54;43.28
78509;BME280;67802;50.846;7.958;2023-07-08T03:58:02;98063.16;;;20.54;43.13
78509;BME280;67802;50.846;7.958;2023-07-08T04:00:28;98057.06;;;20.53;43.33
78509;BME280;67802;50.846;7.958;2023-07-08T04:02:53;98060.66;;;20.52;43.32
78509;BME280;67802;50.846;7.958;2023-07-08T04:05:20;98064.97;;;20.53;43.43
78509;BME280;67802;50.846;7.958;2023-07-08T04:07:47;98063.31;;;20.52;43.44
78509;BME280;67802;50.846;7.958;2023-07-08T04:10:13;98064.25;;;20.51;43.37
78509;BME280;67802;50.846;7.958;2023-07-08T04:12:39;98064.25;;;20.51;43.51
78509;BME280;67802;50.846;7.958;2023-07-08T04:15:07;98065.22;;;20.50;43.53
78509;BME280;67802;50.846;7.958;2023-07-08T04:17:41;98061.72;;;20.50;43.54
78509;BME280;67802;50.846;7.958;2023-07-08T04:20:08;98064.50;;;20.48;43.47
78509;BME280;67802;50.846;7.958;2023-07-08T04:22:36;98059.22;;;20.48;43.60
78509;BME280;67802;50.846;7.958;2023-07-08T04:25:02;98062.81;;;20.47;43.61
78509;BME280;67802;50.846;7.958;2023-07-08T04:27:29;98067.16;;;20.48;43.57
78509;BME280;67802;50.846;7.958;2023-07-08T04:29:55;98062.81;;;20.47;43.70
78509;BME280;67802;50.846;7.958;2023-07-08T04:32:20;98073.38;;;20.47;44.09
78509;BME280;67802;50.846;7.958;2023-07-08T04:34:50;98066.28;;;20.48;43.73
78509;BME280;67802;50.846;7.958;2023-07-08T04:37:16;98064.75;;;20.45;43.86
78509;BME280;67802;50.846;7.958;2023-07-08T04:39:42;98061.16;;;20.46;43.75
78509;BME280;67802;50.846;7.958;2023-07-08T04:42:07;98059.47;;;20.45;43.84
78509;BME280;67802;50.846;7.958;2023-07-08T04:44:33;98067.38;;;20.45;43.87
78509;BME280;67802;50.846;7.958;2023-07-08T04:46:58;98070.03;;;20.45;43.96
78509;BME280;67802;50.846;7.958;2023-07-08T04:49:24;98065.72;;;20.44;43.83
78509;BME280;67802;50.846;7.958;2023-07-08T04:51:51;98060.53;;;20.42;43.91
78509;BME280;67802;50.846;7.958;2023-07-08T04:54:17;98061.41;;;20.43;44.20
78509;BME280;67802;50.846;7.958;2023-07-08T04:56:47;98065.00;;;20.42;44.06
78509;BME280;67802;50.846;7.958;2023-07-08T04:59:17;98063.31;;;20.41;43.96
78509;BME280;67802;50.846;7.958;2023-07-08T05:01:43;98064.13;;;20.41;43.85
78509;BME280;67802;50.846;7.958;2023-07-08T05:04:12;98073.72;;;20.42;43.88
78509;BME280;67802;50.846;7.958;2023-07-08T05:06:38;98067.63;;;20.42;43.92
78509;BME280;67802;50.846;7.958;2023-07-08T05:09:04;98071.94;;;20.43;43.93
78509;BME280;67802;50.846;7.958;2023-07-08T05:11:30;98070.28;;;20.42;43.85
78509;BME280;67802;50.846;7.958;2023-07-08T05:13:55;98064.84;;;20.43;43.81
78509;BME280;67802;50.846;7.958;2023-07-08T05:16:21;98065.72;;;20.44;43.83
78509;BME280;67802;50.846;7.958;2023-07-08T05:18:46;98061.16;;;20.46;43.86
78509;BME280;67802;50.846;7.958;2023-07-08T05:21:12;98065.47;;;20.47;43.81
78509;BME280;67802;50.846;7.958;2023-07-08T05:23:38;98057.56;;;20.47;43.93
78509;BME280;67802;50.846;7.958;2023-07-08T05:26:04;98061.72;;;20.50;43.93
78509;BME280;67802;50.846;7.958;2023-07-08T05:28:30;98047.56;;;20.51;44.08
78509;BME280;67802;50.846;7.958;2023-07-08T05:30:56;98047.47;;;20.52;43.90
78509;BME280;67802;50.846;7.958;2023-07-08T05:33:23;98042.19;;;20.52;43.97
78509;BME280;67802;50.846;7.958;2023-07-08T05:35:49;98051.78;;;20.53;43.78
78509;BME280;67802;50.846;7.958;2023-07-08T05:38:14;98053.47;;;20.54;43.90
78509;BME280;67802;50.846;7.958;2023-07-08T05:40:39;98048.19;;;20.54;43.93
78509;BME280;67802;50.846;7.958;2023-07-08T05:43:05;98049.84;;;20.55;43.98
78509;BME280;67802;50.846;7.958;2023-07-08T05:45:30;98049.84;;;20.55;43.96
78509;BME280;67802;50.846;7.958;2023-07-08T05:47:56;98050.69;;;20.56;43.87
78509;BME280;67802;50.846;7.958;2023-07-08T05:50:21;98057.63;;;20.57;43.90
78509;BME280;67802;50.846;7.958;2023-07-08T05:52:46;98054.03;;;20.58;44.01
78509;BME280;67802;50.846;7.958;2023-07-08T05:55:11;98050.56;;;20.57;43.83
78509;BME280;67802;50.846;7.958;2023-07-08T05:57:37;98044.34;;;20.58;44.00
78509;BME280;67802;50.846;7.958;2023-07-08T06:00:03;98045.03;;;20.60;43.85
78509;BME280;67802;50.846;7.958;2023-07-08T06:02:29;98047.69;;;20.60;43.84
78509;BME280;67802;50.846;7.958;2023-07-08T06:04:54;98049.38;;;20.61;43.79
78509;BME280;67802;50.846;7.958;2023-07-08T06:07:19;98043.13;;;20.63;43.85
78509;BME280;67802;50.846;7.958;2023-07-08T06:09:45;98050.91;;;20.64;43.78
78509;BME280;67802;50.846;7.958;2023-07-08T06:12:11;98054.41;;;20.65;43.79
78509;BME280;67802;50.846;7.958;2023-07-08T06:14:37;98057.03;;;20.65;43.75
78509;BME280;67802;50.846;7.958;2023-07-08T06:17:04;98049.81;;;20.67;43.73
78509;BME280;67802;50.846;7.958;2023-07-08T06:19:29;98045.38;;;20.67;43.67
78509;BME280;67802;50.846;7.958;2023-07-08T06:21:54;98054.13;;;20.68;43.68
78509;BME280;67802;50.846;7.958;2023-07-08T06:24:20;98045.25;;;20.69;43.80
78509;BME280;67802;50.846;7.958;2023-07-08T06:26:46;98043.31;;;20.71;43.83
78509;BME280;67802;50.846;7.958;2023-07-08T06:29:11;98044.16;;;20.71;43.77
78509;BME280;67802;50.846;7.958;2023-07-08T06:31:36;98049.31;;;20.73;43.83
78509;BME280;67802;50.846;7.958;2023-07-08T06:34:02;98049.19;;;20.74;43.84
78509;BME280;67802;50.846;7.958;2023-07-08T06:36:27;98050.03;;;20.75;43.78
78509;BME280;67802;50.846;7.958;2023-07-08T06:38:52;98049.06;;;20.76;43.86
78509;BME280;67802;50.846;7.958;2023-07-08T06:41:18;98047.16;;;20.78;43.63
78509;BME280;67802;50.846;7.958;2023-07-08T06:43:43;98051.47;;;20.79;43.64
78509;BME280;67802;50.846;7.958;2023-07-08T06:46:09;98053.16;;;20.80;43.80
78509;BME280;67802;50.846;7.958;2023-07-08T06:48:34;98048.72;;;20.81;43.67
78509;BME280;67802;50.846;7.958;2023-07-08T06:50:59;98060.81;;;20.83;43.79
78509;BME280;67802;50.846;7.958;2023-07-08T06:53:24;98066.97;;;20.84;43.62
78509;BME280;67802;50.846;7.958;2023-07-08T06:55:50;98072.09;;;20.85;43.71
78509;BME280;67802;50.846;7.958;2023-07-08T06:58:15;98064.19;;;20.85;43.75
78509;BME280;67802;50.846;7.958;2023-07-08T07:00:44;98060.56;;;20.86;43.85
78509;BME280;67802;50.846;7.958;2023-07-08T07:03:10;98070.16;;;20.87;43.76
78509;BME280;67802;50.846;7.958;2023-07-08T07:05:35;98066.56;;;20.88;43.72
78509;BME280;67802;50.846;7.958;2023-07-08T07:08:01;98073.53;;;20.89;43.58
78509;BME280;67802;50.846;7.958;2023-07-08T07:10:26;98071.59;;;20.92;43.66
78509;BME280;67802;50.846;7.958;2023-07-08T07:12:52;98066.31;;;20.92;43.67
78509;BME280;67802;50.846;7.958;2023-07-08T07:15:17;98069.66;;;20.94;43.54
78509;BME280;67802;50.846;7.958;2023-07-08T07:17:43;98082.72;;;20.95;43.54
78509;BME280;67802;50.846;7.958;2023-07-08T07:20:08;98079.97;;;20.97;43.72
78509;BME280;67802;50.846;7.958;2023-07-08T07:22:35;98079.03;;;20.98;43.58
78509;BME280;67802;50.846;7.958;2023-07-08T07:25:00;98076.13;;;21.01;43.67
78509;BME280;67802;50.846;7.958;2023-07-08T07:27:25;98074.78;;;21.07;44.16
78509;BME280;67802;50.846;7.958;2023-07-08T07:29:51;98076.53;;;21.17;43.89
78509;BME280;67802;50.846;7.958;2023-07-08T07:32:18;98088.25;;;21.25;43.51
78509;BME280;67802;50.846;7.958;2023-07-08T07:34:47;98084.13;;;21.32;43.17
78509;BME280;67802;50.846;7.958;2023-07-08T07:37:14;98078.22;;;21.40;42.51
78509;BME280;67802;50.846;7.958;2023-07-08T07:39:40;98077.13;;;21.42;42.51
78509;BME280;67802;50.846;7.958;2023-07-08T07:42:06;98077.56;;;21.47;42.51
78509;BME280;67802;50.846;7.958;2023-07-08T07:44:31;98074.53;;;21.52;41.80
78509;BME280;67802;50.846;7.958;2023-07-08T07:46:57;98081.94;;;21.58;41.72
78509;BME280;67802;50.846;7.958;2023-07-08T07:49:22;98076.53;;;21.60;41.99
78509;BME280;67802;50.846;7.958;2023-07-08T07:51:47;98078.47;;;21.58;42.10
78509;BME280;67802;50.846;7.958;2023-07-08T07:54:13;98082.09;;;21.57;42.51
78509;BME280;67802;50.846;7.958;2023-07-08T07:56:39;98074.53;;;21.52;42.59
78509;BME280;67802;50.846;7.958;2023-07-08T07:59:04;98066.59;;;21.52;42.87
78509;BME280;67802;50.846;7.958;2023-07-08T08:01:30;98067.56;;;21.51;42.79
78509;BME280;67802;50.846;7.958;2023-07-08T08:03:55;98074.53;;;21.52;42.67
78509;BME280;67802;50.846;7.958;2023-07-08T08:06:21;98077.06;;;21.54;42.61
78509;BME280;67802;50.846;7.958;2023-07-08T08:08:47;98080.66;;;21.53;42.69
78509;BME280;67802;50.846;7.958;2023-07-08T08:11:14;98082.34;;;21.54;42.83
78509;BME280;67802;50.846;7.958;2023-07-08T08:13:39;98077.06;;;21.54;42.99
78509;BME280;67802;50.846;7.958;2023-07-08T08:16:05;98076.78;;;21.57;42.80
78509;BME280;67802;50.846;7.958;2023-07-08T08:18:30;98078.31;;;21.59;43.07
78509;BME280;67802;50.846;7.958;2023-07-08T08:20:56;98083.50;;;21.61;42.72
78509;BME280;67802;50.846;7.958;2023-07-08T08:23:21;98078.97;;;21.63;42.70
78509;BME280;67802;50.846;7.958;2023-07-08T08:25:47;98083.28;;;21.64;42.47
78509;BME280;67802;50.846;7.958;2023-07-08T08:28:12;98077.84;;;21.66;42.77
78509;BME280;67802;50.846;7.958;2023-07-08T08:30:37;98077.47;;;21.70;42.73
78509;BME280;67802;50.846;7.958;2023-07-08T08:33:03;98072.88;;;21.72;42.67
78509;BME280;67802;50.846;7.958;2023-07-08T08:35:28;98075.25;;;21.75;42.82
78509;BME280;67802;50.846;7.958;2023-07-08T08:37:54;98082.22;;;21.76;42.71
78509;BME280;67802;50.846;7.958;2023-07-08T08:40:20;98083.06;;;21.77;42.79
78509;BME280;67802;50.846;7.958;2023-07-08T08:42:58;98089.16;;;21.77;42.72
78509;BME280;67802;50.846;7.958;2023-07-08T08:45:27;98086.25;;;21.81;42.61
78509;BME280;67802;50.846;7.958;2023-07-08T08:48:00;98082.38;;;21.85;42.61
78509;BME280;67802;50.846;7.958;2023-07-08T08:50:33;98090.31;;;21.85;42.92
78509;BME280;67802;50.846;7.958;2023-07-08T08:53:04;98082.28;;;21.86;42.87
78509;BME280;67802;50.846;7.958;2023-07-08T08:55:30;98079.47;;;21.88;42.67
78509;BME280;67802;50.846;7.958;2023-07-08T08:58:30;98077.69;;;21.88;42.65
78509;BME280;67802;50.846;7.958;2023-07-08T09:01:04;98078.78;;;21.86;42.83
78509;BME280;67802;50.846;7.958;2023-07-08T09:03:39;98077.09;;;21.85;42.93
78509;BME280;67802;50.846;7.958;2023-07-08T09:06:18;98078.06;;;21.84;43.06
78509;BME280;67802;50.846;7.958;2023-07-08T09:08:44;98074.59;;;21.83;42.77
78509;BME280;67802;50.846;7.958;2023-07-08T09:13:40;98071.09;;;21.83;43.19
78509;BME280;67802;50.846;7.958;2023-07-08T09:18:56;98068.47;;;21.83;43.08
78509;BME280;67802;50.846;7.958;2023-07-08T09:21:49;98063.19;;;21.83;42.85
78509;BME280;67802;50.846;7.958;2023-07-08T09:26:53;98065.56;;;21.86;43.22
78509;BME280;67802;50.846;7.958;2023-07-08T09:29:22;98070.03;;;21.85;43.14
78509;BME280;67802;50.846;7.958;2023-07-08T09:31:48;98067.22;;;21.87;43.01
78509;BME280;67802;50.846;7.958;2023-07-08T09:34:16;98067.22;;;21.87;43.26
78509;BME280;67802;50.846;7.958;2023-07-08T09:36:43;98063.63;;;21.88;43.31
78509;BME280;67802;50.846;7.958;2023-07-08T09:39:11;98064.47;;;21.88;43.10
78509;BME280;67802;50.846;7.958;2023-07-08T09:41:38;98065.28;;;21.89;43.05
78509;BME280;67802;50.846;7.958;2023-07-08T09:44:13;98068.66;;;21.91;43.03
78509;BME280;67802;50.846;7.958;2023-07-08T09:46:39;98066.72;;;21.93;43.00
78509;BME280;67802;50.846;7.958;2023-07-08T09:49:26;98068.53;;;21.92;43.31
78509;BME280;67802;50.846;7.958;2023-07-08T09:51:53;98066.72;;;21.93;43.18
78509;BME280;67802;50.846;7.958;2023-07-08T09:54:23;98072.84;;;21.93;43.51
78509;BME280;67802;50.846;7.958;2023-07-08T09:56:55;98063.09;;;21.94;42.98
78509;BME280;67802;50.846;7.958;2023-07-08T09:59:23;98071.72;;;21.96;43.20
78509;BME280;67802;50.846;7.958;2023-07-08T10:01:51;98068.13;;;21.97;43.35
78509;BME280;67802;50.846;7.958;2023-07-08T10:04:18;98068.97;;;21.98;43.07
78509;BME280;67802;50.846;7.958;2023-07-08T10:06:44;98060.06;;;21.99;43.24
78509;BME280;67802;50.846;7.958;2023-07-08T10:09:14;98064.25;;;22.01;43.07
78509;BME280;67802;50.846;7.958;2023-07-08T10:11:48;98049.19;;;22.02;43.03
78509;BME280;67802;50.846;7.958;2023-07-08T10:14:33;98050.88;;;22.03;43.26
78509;BME280;67802;50.846;7.958;2023-07-08T10:17:00;98057.72;;;22.05;43.45
78509;BME280;67802;50.846;7.958;2023-07-08T10:19:26;98050.59;;;22.06;43.32
78509;BME280;67802;50.846;7.958;2023-07-08T10:27:36;98045.91;;;22.09;42.90
78509;BME280;67802;50.846;7.958;2023-07-08T10:30:20;98036.97;;;22.11;43.37
78509;BME280;67802;50.846;7.958;2023-07-08T10:32:53;98041.16;;;22.13;43.23
78509;BME280;67802;50.846;7.958;2023-07-08T10:35:26;98045.47;;;22.14;43.39
78509;BME280;67802;50.846;7.958;2023-07-08T10:40:53;98038.94;;;22.18;43.32
78509;BME280;67802;50.846;7.958;2023-07-08T10:43:53;98035.91;;;22.23;43.10
78509;BME280;67802;50.846;7.958;2023-07-08T10:46:36;98040.91;;;22.26;43.06
78509;BME280;67802;50.846;7.958;2023-07-08T10:49:31;98031.88;;;22.29;43.15
78509;BME280;67802;50.846;7.958;2023-07-08T10:52:14;98037.00;;;22.30;43.08
78509;BME280;67802;50.846;7.958;2023-07-08T11:05:31;98026.47;;;22.40;42.99
78509;BME280;67802;50.846;7.958;2023-07-08T11:08:03;98026.31;;;22.42;43.09
78509;BME280;67802;50.846;7.958;2023-07-08T11:10:56;98019.13;;;22.44;42.85
78509;BME280;67802;50.846;7.958;2023-07-08T11:13:25;98021.75;;;22.44;43.23
78509;BME280;67802;50.846;7.958;2023-07-08T11:16:16;98022.63;;;22.44;43.44
78509;BME280;67802;50.846;7.958;2023-07-08T11:18:50;98026.06;;;22.45;43.47
78509;BME280;67802;50.846;7.958;2023-07-08T11:21:22;98030.41;;;22.46;43.33
78509;BME280;67802;50.846;7.958;2023-07-08T11:28:57;98037.38;;;22.47;43.59
78509;BME280;67802;50.846;7.958;2023-07-08T11:31:24;98028.47;;;22.48;43.48
78509;BME280;67802;50.846;7.958;2023-07-08T11:33:51;98027.38;;;22.50;43.13
78509;BME280;67802;50.846;7.958;2023-07-08T11:36:19;98028.19;;;22.51;43.50
78509;BME280;67802;50.846;7.958;2023-07-08T11:38:50;98035.84;;;22.54;43.51
78509;BME280;67802;50.846;7.958;2023-07-08T11:41:19;98031.38;;;22.55;43.37
78509;BME280;67802;50.846;7.958;2023-07-08T11:43:49;98033.91;;;22.56;43.24
78509;BME280;67802;50.846;7.958;2023-07-08T11:46:26;98035.56;;;22.57;43.22
78509;BME280;67802;50.846;7.958;2023-07-08T11:48:55;98030.00;;;22.60;43.34
78509;BME280;67802;50.846;7.958;2023-07-08T11:51:27;98028.34;;;22.59;43.31
78509;BME280;67802;50.846;7.958;2023-07-08T11:54:29;98030.13;;;22.59;43.27
78509;BME280;67802;50.846;7.958;2023-07-08T11:57:05;98022.88;;;22.61;43.01
78509;BME280;67802;50.846;7.958;2023-07-08T11:59:36;98025.41;;;22.62;42.95
78509;BME280;67802;50.846;7.958;2023-07-08T12:02:10;98019.97;;;22.64;43.21
78509;BME280;67802;50.846;7.958;2023-07-08T12:07:40;98031.25;;;22.66;43.06
78509;BME280;67802;50.846;7.958;2023-07-08T12:10:13;98017.03;;;22.67;42.71
78509;BME280;67802;50.846;7.958;2023-07-08T12:12:42;98019.56;;;22.68;42.80
78509;BME280;67802;50.846;7.958;2023-07-08T12:15:12;98022.91;;;22.71;42.76
78509;BME280;67802;50.846;7.958;2023-07-08T12:17:41;98018.44;;;22.71;42.76
78509;BME280;67802;50.846;7.958;2023-07-08T12:20:17;98022.63;;;22.74;42.69
78509;BME280;67802;50.846;7.958;2023-07-08T12:22:43;98026.09;;;22.74;42.81
78509;BME280;67802;50.846;7.958;2023-07-08T12:25:13;98024.16;;;22.76;43.14
78509;BME280;67802;50.846;7.958;2023-07-08T12:27:41;98028.63;;;22.76;43.15
78509;BME280;67802;50.846;7.958;2023-07-08T12:30:09;98018.75;;;22.78;42.55
78509;BME280;67802;50.846;7.958;2023-07-08T12:32:35;98030.97;;;22.79;42.73
78509;BME280;67802;50.846;7.958;2023-07-08T12:35:01;98032.53;;;22.81;43.06
78509;BME280;67802;50.846;7.958;2023-07-08T12:37:29;98028.06;;;22.82;42.65
78509;BME280;67802;50.846;7.958;2023-07-08T12:39:56;98027.06;;;22.83;42.57
78509;BME280;67802;50.846;7.958;2023-07-08T12:42:30;98033.06;;;22.85;43.11
78509;BME280;67802;50.846;7.958;2023-07-08T12:44:56;98030.41;;;22.85;43.10
78509;BME280;67802;50.846;7.958;2023-07-08T12:47:22;98017.19;;;22.85;42.70
78509;BME280;67802;50.846;7.958;2023-07-08T12:49:47;98026.53;;;22.89;42.71
78509;BME280;67802;50.846;7.958;2023-07-08T12:52:21;98020.25;;;22.90;42.74
78509;BME280;67802;50.846;7.958;2023-07-08T12:54:46;98022.91;;;22.90;42.85
78509;BME280;67802;50.846;7.958;2023-07-08T12:57:12;98013.97;;;22.91;42.97
78509;BME280;67802;50.846;7.958;2023-07-08T12:59:38;98020.94;;;22.92;43.04
78509;BME280;67802;50.846;7.958;2023-07-08T13:02:07;98012.03;;;22.93;42.68
78509;BME280;67802;50.846;7.958;2023-07-08T13:04:34;98013.69;;;22.94;42.76
78509;BME280;67802;50.846;7.958;2023-07-08T13:07:02;98015.38;;;22.95;42.71
78509;BME280;67802;50.846;7.958;2023-07-08T13:09:38;98017.03;;;22.96;42.75
78509;BME280;67802;50.846;7.958;2023-07-08T13:12:13;98021.38;;;22.97;42.74
78509;BME280;67802;50.846;7.958;2023-07-08T13:14:40;98009.78;;;22.98;42.66
78509;BME280;67802;50.846;7.958;2023-07-08T13:17:11;98016.75;;;23.00;42.91
78509;BME280;67802;50.846;7.958;2023-07-08T13:19:38;98007.84;;;23.01;42.82
78509;BME280;67802;50.846;7.958;2023-07-08T13:22:04;98001.56;;;23.02;42.82
78509;BME280;67802;50.846;7.958;2023-07-08T13:24:31;98006.56;;;23.05;42.67
78509;BME280;67802;50.846;7.958;2023-07-08T13:26:58;98009.22;;;23.05;42.52
78509;BME280;67802;50.846;7.958;2023-07-08T13:29:24;98019.66;;;23.06;42.79
78509;BME280;67802;50.846;7.958;2023-07-08T13:32:03;98019.53;;;23.08;42.59
78509;BME280;67802;50.846;7.958;2023-07-08T13:34:32;98015.06;;;23.08;42.50
78509;BME280;67802;50.846;7.958;2023-07-08T13:36:57;98013.97;;;23.11;42.49
78509;BME280;67802;50.846;7.958;2023-07-08T13:39:31;98015.63;;;23.12;42.32
78509;BME280;67802;50.846;7.958;2023-07-08T13:41:59;98000.56;;;23.12;42.73
78509;BME280;67802;50.846;7.958;2023-07-08T13:44:24;98010.06;;;23.15;42.62